createdAt,value
2024-01-31T00:00:35.000Z,92.65
2024-01-31T00:03:23.650Z,94.13
2024-01-31T00:05:52.188Z,94.36
2024-01-31T00:08:23.473Z,93.39
2024-01-31T00:10:53.702Z,94.96
2024-01-31T00:13:22.331Z,96.07
2024-01-31T00:15:51.181Z,96.55
2024-01-31T00:18:19.944Z,97.25
2024-01-31T00:20:48.647Z,98.05
2024-01-31T00:23:17.179Z,98.86
2024-01-31T00:25:45.806Z,99.04
2024-01-31T00:28:14.493Z,99.15
2024-01-31T00:30:43.086Z,99.62
2024-01-31T00:33:11.657Z,100.00
2024-01-31T00:35:40.154Z,100.00
2024-01-31T00:38:08.857Z,100.00
2024-01-31T00:40:37.643Z,100.00
2024-01-31T00:43:06.291Z,100.00
2024-01-31T00:45:35.029Z,100.00
2024-01-31T00:48:03.959Z,100.00
2024-01-31T00:50:32.686Z,100.00
2024-01-31T00:53:01.372Z,100.00
2024-01-31T00:55:30.151Z,100.00
2024-01-31T00:57:58.686Z,100.00
2024-01-31T01:00:27.737Z,100.00
2024-01-31T01:02:56.461Z,100.00
2024-01-31T01:05:25.004Z,100.00
2024-01-31T01:07:53.493Z,100.00
2024-01-31T01:10:22.243Z,100.00
2024-01-31T01:12:51.064Z,100.00
2024-01-31T01:15:20.788Z,100.00
2024-01-31T01:17:49.341Z,100.00
2024-01-31T01:20:19.115Z,100.00
2024-01-31T01:22:48.557Z,100.00
2024-01-31T01:25:17.620Z,100.00
2024-01-31T01:27:52.508Z,99.78
2024-01-31T01:30:22.557Z,99.39
2024-01-31T01:32:51.784Z,98.79
2024-01-31T01:35:20.306Z,99.21
2024-01-31T01:37:49.944Z,98.69
2024-01-31T01:40:18.802Z,98.35
2024-01-31T01:42:47.331Z,96.71
2024-01-31T01:45:15.736Z,97.24
2024-01-31T01:47:49.791Z,96.84
2024-01-31T01:50:19.381Z,96.75
2024-01-31T01:52:48.621Z,96.05
2024-01-31T01:55:17.558Z,96.60
2024-01-31T01:57:46.469Z,95.45
2024-01-31T02:00:16.469Z,95.64
2024-01-31T02:02:45.243Z,96.08
2024-01-31T02:05:14.523Z,96.18
2024-01-31T02:07:43.816Z,96.08
2024-01-31T02:10:12.395Z,98.00
2024-01-31T02:12:40.830Z,98.65
2024-01-31T02:15:10.194Z,98.98
2024-01-31T02:17:38.876Z,99.11
2024-01-31T02:20:08.475Z,98.47
2024-01-31T02:22:36.964Z,98.66
2024-01-31T02:25:14.028Z,99.07
2024-01-31T02:27:42.480Z,99.63
2024-01-31T02:30:11.569Z,99.39
2024-01-31T02:32:40.060Z,100.00
2024-01-31T02:35:08.790Z,99.93
2024-01-31T02:37:43.027Z,99.87
2024-01-31T02:40:11.984Z,100.00
2024-01-31T02:42:40.363Z,100.00
2024-01-31T02:45:09.327Z,100.00
2024-01-31T02:47:38.575Z,100.00
2024-01-31T02:50:07.802Z,100.00
2024-01-31T02:52:36.378Z,99.97
2024-01-31T02:55:05.529Z,100.00
2024-01-31T02:57:34.189Z,100.00
2024-01-31T03:00:03.534Z,100.00
2024-01-31T03:02:32.175Z,100.00
2024-01-31T03:05:01.140Z,100.00
2024-01-31T03:07:29.794Z,100.00
2024-01-31T03:09:58.495Z,100.00
2024-01-31T03:12:27.129Z,100.00
2024-01-31T03:14:55.705Z,100.00
2024-01-31T03:17:24.192Z,100.00
2024-01-31T03:19:52.862Z,100.00
2024-01-31T03:22:21.286Z,100.00
2024-01-31T03:24:49.606Z,100.00
2024-01-31T03:27:18.117Z,100.00
2024-01-31T03:29:46.500Z,100.00
2024-01-31T03:32:14.865Z,100.00
2024-01-31T03:34:43.413Z,100.00
2024-01-31T03:37:11.915Z,100.00
2024-01-31T03:39:41.096Z,100.00
2024-01-31T03:42:09.539Z,100.00
2024-01-31T03:44:37.917Z,100.00
2024-01-31T03:47:06.384Z,100.00
2024-01-31T03:49:34.744Z,100.00
2024-01-31T03:52:03.277Z,100.00
2024-01-31T03:54:31.721Z,100.00
2024-01-31T03:57:00.048Z,100.00
2024-01-31T03:59:28.520Z,100.00
2024-01-31T04:01:57.069Z,100.00
2024-01-31T04:04:25.597Z,100.00
2024-01-31T04:06:54.586Z,100.00
2024-01-31T04:09:23.042Z,100.00
2024-01-31T04:11:51.477Z,100.00
2024-01-31T04:14:19.989Z,100.00
2024-01-31T04:16:49.292Z,100.00
2024-01-31T04:19:17.836Z,100.00
2024-01-31T04:21:46.343Z,100.00
2024-01-31T04:24:14.764Z,100.00
2024-01-31T04:26:45.452Z,100.00
2024-01-31T04:29:13.950Z,100.00
2024-01-31T04:31:42.538Z,100.00
2024-01-31T04:34:11.306Z,100.00
2024-01-31T04:36:40.125Z,100.00
2024-01-31T04:39:08.694Z,100.00
2024-01-31T04:41:36.994Z,100.00
2024-01-31T04:44:05.652Z,100.00
2024-01-31T04:46:34.010Z,100.00
2024-01-31T04:49:02.447Z,100.00
2024-01-31T04:51:31.099Z,100.00
2024-01-31T04:53:59.513Z,100.00
2024-01-31T04:56:28.072Z,100.00
2024-01-31T04:58:56.654Z,99.94
2024-01-31T05:01:25.181Z,100.00
2024-01-31T05:03:54.254Z,100.00
2024-01-31T05:06:22.910Z,100.00
2024-01-31T05:08:51.690Z,100.00
2024-01-31T05:11:20.390Z,100.00
2024-01-31T05:13:51.633Z,100.00
2024-01-31T05:16:20.709Z,100.00
2024-01-31T05:18:49.520Z,100.00
2024-01-31T05:21:18.206Z,100.00
2024-01-31T05:23:46.683Z,100.00
2024-01-31T05:26:15.111Z,100.00
2024-01-31T05:28:44.822Z,100.00
2024-01-31T05:31:13.602Z,100.00
2024-01-31T05:33:42.380Z,100.00
2024-01-31T05:36:10.834Z,100.00
2024-01-31T05:38:41.365Z,100.00
2024-01-31T05:41:11.421Z,100.00
2024-01-31T05:43:40.184Z,100.00
2024-01-31T05:46:09.091Z,100.00
2024-01-31T05:48:38.092Z,100.00
2024-01-31T05:51:06.632Z,100.00
2024-01-31T05:53:35.121Z,100.00
2024-01-31T05:56:04.238Z,100.00
2024-01-31T05:58:32.968Z,100.00
2024-01-31T06:01:01.785Z,100.00
2024-01-31T06:03:30.387Z,100.00
2024-01-31T06:06:00.037Z,100.00
2024-01-31T06:08:28.669Z,100.00
2024-01-31T06:11:04.510Z,100.00
2024-01-31T06:13:33.545Z,100.00
2024-01-31T06:16:03.648Z,100.00
2024-01-31T06:18:36.017Z,100.00
2024-01-31T06:21:05.927Z,100.00
2024-01-31T06:23:34.511Z,100.00
2024-01-31T06:26:05.999Z,100.00
2024-01-31T06:28:40.098Z,100.00
2024-01-31T06:31:25.714Z,100.00
2024-01-31T06:33:54.495Z,100.00
2024-01-31T06:36:23.020Z,100.00
2024-01-31T06:38:51.604Z,100.00
2024-01-31T06:41:20.021Z,100.00
2024-01-31T06:43:48.523Z,100.00
2024-01-31T06:46:17.800Z,100.00
2024-01-31T06:48:46.318Z,100.00
2024-01-31T06:51:14.727Z,100.00
2024-01-31T06:53:43.045Z,100.00
2024-01-31T06:56:18.131Z,99.71
2024-01-31T06:58:50.957Z,98.63
2024-01-31T07:01:20.469Z,97.09
2024-01-31T07:03:49.073Z,96.58
2024-01-31T07:06:17.494Z,95.51
2024-01-31T07:08:46.195Z,94.36
2024-01-31T07:11:14.776Z,93.61
2024-01-31T07:13:43.362Z,93.67
2024-01-31T07:16:12.264Z,92.74
2024-01-31T07:18:44.826Z,92.79
2024-01-31T07:21:24.678Z,93.70
2024-01-31T07:23:53.964Z,92.99
2024-01-31T07:26:27.553Z,92.39
2024-01-31T07:28:56.161Z,91.75
2024-01-31T07:31:24.695Z,92.97
2024-01-31T07:33:53.130Z,92.05
2024-01-31T07:36:21.566Z,92.27
2024-01-31T07:38:49.984Z,91.54
2024-01-31T07:41:18.470Z,90.84
2024-01-31T07:43:46.992Z,91.49
2024-01-31T07:46:15.671Z,91.09
2024-01-31T07:48:44.471Z,90.12
2024-01-31T07:51:12.904Z,89.83
2024-01-31T07:53:41.288Z,90.37
2024-01-31T07:56:09.866Z,89.88
2024-01-31T07:58:38.709Z,88.10
2024-01-31T08:01:07.944Z,88.39
2024-01-31T08:03:40.666Z,88.45
2024-01-31T08:06:09.804Z,87.76
2024-01-31T08:08:39.176Z,87.85
2024-01-31T08:11:07.825Z,87.47
2024-01-31T08:13:36.483Z,86.17
2024-01-31T08:16:07.373Z,86.07
2024-01-31T08:18:35.720Z,85.35
2024-01-31T08:21:04.864Z,84.47
2024-01-31T08:23:33.317Z,84.28
2024-01-31T08:26:01.900Z,84.00
2024-01-31T08:28:30.484Z,83.14
2024-01-31T08:30:58.911Z,82.77
2024-01-31T08:33:27.497Z,82.68
2024-01-31T08:35:56.457Z,83.44
2024-01-31T08:38:24.921Z,81.16
2024-01-31T08:40:53.470Z,80.80
2024-01-31T08:43:22.001Z,79.84
2024-01-31T08:45:50.362Z,80.46
2024-01-31T08:48:19.486Z,80.43
2024-01-31T08:50:49.324Z,80.06
2024-01-31T08:53:18.051Z,79.16
2024-01-31T08:55:55.309Z,78.36
2024-01-31T08:58:29.912Z,79.62
2024-01-31T09:00:58.477Z,79.94
2024-01-31T09:03:27.238Z,79.00
2024-01-31T09:05:55.998Z,79.42
2024-01-31T09:08:24.712Z,77.36
2024-01-31T09:10:54.752Z,77.95
2024-01-31T09:13:24.408Z,75.49
2024-01-31T09:15:53.024Z,75.00
2024-01-31T09:18:22.170Z,75.12
2024-01-31T09:20:51.733Z,74.40
2024-01-31T09:23:20.322Z,74.97
2024-01-31T09:25:48.942Z,75.96
2024-01-31T09:28:17.588Z,77.04
2024-01-31T09:30:46.592Z,75.48
2024-01-31T09:33:15.079Z,75.87
2024-01-31T09:35:43.700Z,73.83
2024-01-31T09:38:12.264Z,74.85
2024-01-31T09:40:40.868Z,75.07
2024-01-31T09:43:10.242Z,74.50
2024-01-31T09:45:42.084Z,72.72
2024-01-31T09:48:13.800Z,72.67
2024-01-31T09:50:42.627Z,73.00
2024-01-31T09:53:12.850Z,73.47
2024-01-31T09:55:44.849Z,73.67
2024-01-31T09:58:13.246Z,73.46
2024-01-31T10:00:42.137Z,73.58
2024-01-31T10:03:11.166Z,72.92
2024-01-31T10:05:39.618Z,73.58
2024-01-31T10:08:08.867Z,72.07
2024-01-31T10:10:38.704Z,72.40
2024-01-31T10:13:10.954Z,71.97
2024-01-31T10:15:39.428Z,72.81
2024-01-31T10:18:08.345Z,72.41
2024-01-31T10:20:36.899Z,72.41
2024-01-31T10:23:05.603Z,72.37
2024-01-31T10:25:34.293Z,72.46
2024-01-31T10:28:06.380Z,71.77
2024-01-31T10:30:40.118Z,72.05
2024-01-31T10:33:10.405Z,71.95
2024-01-31T10:36:23.947Z,71.23
2024-01-31T10:38:32.831Z,70.48
2024-01-31T10:41:03.600Z,70.63
2024-01-31T10:43:33.889Z,69.87
2024-01-31T10:46:02.374Z,68.61
2024-01-31T10:48:31.082Z,68.55
2024-01-31T10:51:02.510Z,67.51
2024-01-31T10:53:32.508Z,67.91
2024-01-31T10:56:02.494Z,65.96
2024-01-31T10:58:32.046Z,67.32
2024-01-31T11:01:04.889Z,66.52
2024-01-31T11:03:33.738Z,64.47
2024-01-31T11:06:03.487Z,63.99
2024-01-31T11:08:32.265Z,61.72
2024-01-31T11:11:00.862Z,62.59
2024-01-31T11:13:29.343Z,60.78
2024-01-31T11:15:57.771Z,60.14
2024-01-31T11:18:26.615Z,60.00
2024-01-31T11:20:57.888Z,58.72
2024-01-31T11:23:27.167Z,60.33
2024-01-31T11:25:56.034Z,60.46
2024-01-31T11:28:27.143Z,60.26
2024-01-31T11:30:56.133Z,59.11
2024-01-31T11:33:24.764Z,55.77
2024-01-31T11:35:53.659Z,56.97
2024-01-31T11:38:22.576Z,56.41
2024-01-31T11:40:52.728Z,57.23
2024-01-31T11:43:21.233Z,55.56
2024-01-31T11:45:50.152Z,54.95
2024-01-31T11:48:18.883Z,54.67
2024-01-31T11:50:47.556Z,56.76
2024-01-31T11:53:16.434Z,56.38
2024-01-31T11:55:48.569Z,50.94
2024-01-31T11:58:17.163Z,53.75
2024-01-31T12:00:46.297Z,53.92
2024-01-31T12:03:15.096Z,50.69
2024-01-31T12:05:43.886Z,49.75
2024-01-31T12:08:19.278Z,52.42
2024-01-31T12:10:51.145Z,53.31
2024-01-31T12:13:19.737Z,50.07
2024-01-31T12:15:49.251Z,50.59
2024-01-31T12:18:18.633Z,48.47
2024-01-31T12:20:47.054Z,47.51
2024-01-31T12:23:15.502Z,47.86
2024-01-31T12:25:43.978Z,49.24
2024-01-31T12:28:12.301Z,45.62
2024-01-31T12:30:40.640Z,47.28
2024-01-31T12:33:09.401Z,45.77
2024-01-31T12:35:37.962Z,43.66
2024-01-31T12:38:06.507Z,47.59
2024-01-31T12:40:34.869Z,44.05
2024-01-31T12:43:04.162Z,43.13
2024-01-31T12:45:34.530Z,44.00
2024-01-31T12:48:03.210Z,43.83
2024-01-31T12:50:32.645Z,44.12
2024-01-31T12:53:01.275Z,46.46
2024-01-31T12:55:29.648Z,41.22
2024-01-31T12:57:58.141Z,42.08
2024-01-31T13:00:26.659Z,43.46
2024-01-31T13:02:55.145Z,42.74
2024-01-31T13:05:24.112Z,42.82
2024-01-31T13:07:53.181Z,41.44
2024-01-31T13:10:22.080Z,41.52
2024-01-31T13:12:50.650Z,41.53
2024-01-31T13:15:20.874Z,42.19
2024-01-31T13:17:50.279Z,42.60
2024-01-31T13:20:18.884Z,40.37
2024-01-31T13:22:47.450Z,41.05
2024-01-31T13:25:16.449Z,41.78
2024-01-31T13:27:44.942Z,41.60
2024-01-31T13:30:13.952Z,41.94
2024-01-31T13:32:42.559Z,42.64
2024-01-31T13:35:12.114Z,41.86
2024-01-31T13:37:40.703Z,42.72
2024-01-31T13:40:11.505Z,42.08
2024-01-31T13:42:40.007Z,41.97
2024-01-31T13:45:08.767Z,42.43
2024-01-31T13:47:38.507Z,42.95
2024-01-31T13:50:07.871Z,42.22
2024-01-31T13:52:36.313Z,42.65
2024-01-31T13:55:05.415Z,42.01
2024-01-31T13:57:33.893Z,42.08
2024-01-31T14:00:08.449Z,42.37
2024-01-31T14:02:38.193Z,42.62
2024-01-31T14:05:07.140Z,43.60
2024-01-31T14:07:35.608Z,43.42
2024-01-31T14:10:04.426Z,43.68
2024-01-31T14:12:32.864Z,44.27
2024-01-31T14:15:01.510Z,44.86
2024-01-31T14:17:30.589Z,45.29
2024-01-31T14:19:59.095Z,45.51
2024-01-31T14:22:35.811Z,45.85
2024-01-31T14:25:16.746Z,45.67
2024-01-31T14:27:47.275Z,45.64
2024-01-31T14:30:16.281Z,46.31
2024-01-31T14:32:45.002Z,46.04
2024-01-31T14:35:13.520Z,46.39
2024-01-31T14:37:42.580Z,46.86
2024-01-31T14:40:11.680Z,47.78
2024-01-31T14:42:40.253Z,48.72
2024-01-31T14:45:10.841Z,49.83
2024-01-31T14:47:39.312Z,50.07
2024-01-31T14:50:08.046Z,51.52
2024-01-31T14:52:36.447Z,51.49
2024-01-31T14:55:05.426Z,53.09
2024-01-31T14:57:34.925Z,53.57
2024-01-31T15:00:04.729Z,53.49
2024-01-31T15:02:33.271Z,53.90
2024-01-31T15:05:01.864Z,55.94
2024-01-31T15:07:31.248Z,56.95
2024-01-31T15:10:00.135Z,59.19
2024-01-31T15:12:29.013Z,60.57
2024-01-31T15:14:57.640Z,59.58
2024-01-31T15:17:26.396Z,62.93
2024-01-31T15:19:55.081Z,65.11
2024-01-31T15:22:23.589Z,65.45
2024-01-31T15:24:52.024Z,64.18
2024-01-31T15:27:20.505Z,65.98
2024-01-31T15:29:49.025Z,68.35
2024-01-31T15:32:17.780Z,68.70
2024-01-31T15:34:46.373Z,69.48
2024-01-31T15:37:14.837Z,69.80
2024-01-31T15:39:43.428Z,72.22
2024-01-31T15:42:11.935Z,68.49
2024-01-31T15:44:40.219Z,68.64
2024-01-31T15:47:16.351Z,69.61
2024-01-31T15:49:46.000Z,69.26
2024-01-31T15:52:15.690Z,67.26
2024-01-31T15:54:44.046Z,69.57
2024-01-31T15:57:12.426Z,72.74
2024-01-31T15:59:40.938Z,74.05
2024-01-31T16:02:09.491Z,75.68
2024-01-31T16:04:37.865Z,75.19
2024-01-31T16:07:06.224Z,76.08
2024-01-31T16:09:34.693Z,77.08
2024-01-31T16:12:03.684Z,78.21
2024-01-31T16:14:32.367Z,78.01
2024-01-31T16:17:01.097Z,77.05
2024-01-31T16:19:30.313Z,79.83
2024-01-31T16:21:59.260Z,79.16
2024-01-31T16:24:27.877Z,77.08
2024-01-31T16:26:56.318Z,78.74
2024-01-31T16:29:24.882Z,79.32
2024-01-31T16:31:54.136Z,80.34
2024-01-31T16:34:23.003Z,81.12
2024-01-31T16:36:52.540Z,81.00
2024-01-31T16:39:21.435Z,81.84
2024-01-31T16:41:52.360Z,83.87
2024-01-31T16:44:22.199Z,83.87
2024-01-31T16:46:50.775Z,83.97
2024-01-31T16:49:19.246Z,84.51
2024-01-31T16:51:48.040Z,84.90
2024-01-31T16:54:16.766Z,85.73
2024-01-31T16:56:45.229Z,85.80
2024-01-31T16:59:13.795Z,84.08
2024-01-31T17:01:45.862Z,82.80
2024-01-31T17:04:14.316Z,80.14
2024-01-31T17:06:43.224Z,81.26
2024-01-31T17:09:12.477Z,82.58
2024-01-31T17:11:41.804Z,81.59
2024-01-31T17:14:10.410Z,83.37
2024-01-31T17:16:44.484Z,85.59
2024-01-31T17:19:13.464Z,87.27
2024-01-31T17:21:42.251Z,88.06
2024-01-31T17:24:11.049Z,87.29
2024-01-31T17:26:39.643Z,87.54
2024-01-31T17:29:08.161Z,87.68
2024-01-31T17:31:36.558Z,87.29
2024-01-31T17:34:05.099Z,88.02
2024-01-31T17:36:33.607Z,89.15
2024-01-31T17:39:02.240Z,89.42
2024-01-31T17:41:31.132Z,88.25
2024-01-31T17:43:59.674Z,89.98
2024-01-31T17:46:28.283Z,89.68
2024-01-31T17:48:56.669Z,90.19
2024-01-31T17:51:25.433Z,91.80
2024-01-31T17:53:54.148Z,91.22
2024-01-31T17:56:23.246Z,91.24
2024-01-31T17:58:52.826Z,91.46
2024-01-31T18:01:21.299Z,91.90
2024-01-31T18:03:49.695Z,92.82
2024-01-31T18:06:18.214Z,92.69
2024-01-31T18:08:46.765Z,93.33
2024-01-31T18:11:15.331Z,94.45
2024-01-31T18:13:49.491Z,94.70
2024-01-31T18:16:21.199Z,93.99
2024-01-31T18:18:49.739Z,94.90
2024-01-31T18:21:18.725Z,96.08
2024-01-31T18:23:47.473Z,96.80
2024-01-31T18:26:20.885Z,98.00
2024-01-31T18:28:49.450Z,98.61
2024-01-31T18:31:20.658Z,98.74
2024-01-31T18:33:49.375Z,98.89
2024-01-31T18:36:18.370Z,99.47
2024-01-31T18:38:47.287Z,99.75
2024-01-31T18:41:17.445Z,99.56
2024-01-31T18:43:46.388Z,100.00
2024-01-31T18:46:15.369Z,100.00
2024-01-31T18:48:45.484Z,100.00
2024-01-31T18:51:14.998Z,100.00
2024-01-31T18:53:44.159Z,100.00
2024-01-31T18:56:14.174Z,100.00
2024-01-31T18:58:43.832Z,100.00
2024-01-31T19:01:12.777Z,100.00
2024-01-31T19:03:41.326Z,100.00
2024-01-31T19:06:10.027Z,100.00
2024-01-31T19:08:38.594Z,100.00
2024-01-31T19:11:07.148Z,100.00
2024-01-31T19:13:35.642Z,100.00
2024-01-31T19:16:05.494Z,100.00
2024-01-31T19:18:34.836Z,100.00
2024-01-31T19:21:03.808Z,100.00
2024-01-31T19:23:35.176Z,100.00
2024-01-31T19:26:03.631Z,99.99
2024-01-31T19:28:32.227Z,99.99
2024-01-31T19:31:00.841Z,100.00
2024-01-31T19:33:29.553Z,99.92
2024-01-31T19:35:58.206Z,100.00
2024-01-31T19:38:26.928Z,99.92
2024-01-31T19:40:55.381Z,99.32
2024-01-31T19:43:23.869Z,99.74
2024-01-31T19:45:52.602Z,100.00
2024-01-31T19:48:22.716Z,100.00
2024-01-31T19:50:51.223Z,99.98
2024-01-31T19:53:19.857Z,100.00
2024-01-31T19:55:48.221Z,100.00
2024-01-31T19:58:16.615Z,100.00
2024-01-31T20:00:45.106Z,100.00
2024-01-31T20:03:13.813Z,100.00
2024-01-31T20:05:42.747Z,100.00
2024-01-31T20:08:11.339Z,100.00
2024-01-31T20:10:39.631Z,100.00
2024-01-31T20:13:08.202Z,100.00
2024-01-31T20:15:36.593Z,100.00
2024-01-31T20:18:05.293Z,100.00
2024-01-31T20:20:33.795Z,99.49
2024-01-31T20:23:02.336Z,100.00
2024-01-31T20:25:30.925Z,100.00
2024-01-31T20:27:59.339Z,100.00
2024-01-31T20:30:30.147Z,100.00
2024-01-31T20:32:59.219Z,100.00
2024-01-31T20:35:27.867Z,100.00
2024-01-31T20:37:56.407Z,100.00
2024-01-31T20:40:24.683Z,100.00
2024-01-31T20:42:53.176Z,100.00
2024-01-31T20:45:22.408Z,100.00
2024-01-31T20:47:50.911Z,100.00
2024-01-31T20:50:19.514Z,100.00
2024-01-31T20:52:48.426Z,100.00
2024-01-31T20:55:17.004Z,99.99
2024-01-31T20:57:45.528Z,99.99
2024-01-31T21:00:14.728Z,99.89
2024-01-31T21:02:44.048Z,99.76
2024-01-31T21:05:12.793Z,99.97
2024-01-31T21:07:41.279Z,100.00
2024-01-31T21:10:14.032Z,100.00
2024-01-31T21:12:43.186Z,100.00
2024-01-31T21:15:12.582Z,99.94
2024-01-31T21:17:41.723Z,99.86
2024-01-31T21:20:10.911Z,100.00
2024-01-31T21:22:39.573Z,99.98
2024-01-31T21:25:08.666Z,100.00
2024-01-31T21:27:37.229Z,100.00
2024-01-31T21:30:10.035Z,100.00
2024-01-31T21:32:38.886Z,100.00
2024-01-31T21:35:07.912Z,100.00
2024-01-31T21:37:36.862Z,100.00
2024-01-31T21:40:05.616Z,100.00
2024-01-31T21:42:34.281Z,100.00
2024-01-31T21:45:02.704Z,100.00
2024-01-31T21:47:31.146Z,100.00
2024-01-31T21:49:59.576Z,100.00
2024-01-31T21:52:27.960Z,100.00
2024-01-31T21:54:56.334Z,100.00
2024-01-31T21:57:24.564Z,100.00
2024-01-31T21:59:53.365Z,100.00
2024-01-31T22:02:21.988Z,100.00
2024-01-31T22:04:50.564Z,100.00
2024-01-31T22:07:20.865Z,100.00
2024-01-31T22:09:50.092Z,100.00
2024-01-31T22:12:18.495Z,100.00
2024-01-31T22:14:47.286Z,100.00
2024-01-31T22:17:15.737Z,100.00
2024-01-31T22:19:44.113Z,100.00
2024-01-31T22:22:12.611Z,100.00
2024-01-31T22:24:40.977Z,100.00
2024-01-31T22:27:09.525Z,100.00
2024-01-31T22:29:38.285Z,100.00
2024-01-31T22:32:06.900Z,100.00
2024-01-31T22:34:35.493Z,100.00
2024-01-31T22:37:07.936Z,100.00
2024-01-31T22:39:36.457Z,100.00
2024-01-31T22:42:05.188Z,100.00
2024-01-31T22:44:34.111Z,100.00
2024-01-31T22:47:02.478Z,100.00
2024-01-31T22:49:31.198Z,100.00
2024-01-31T22:51:59.608Z,100.00
2024-01-31T22:54:30.095Z,100.00
2024-01-31T22:56:58.867Z,100.00
2024-01-31T22:59:27.388Z,100.00
2024-01-31T23:01:56.561Z,100.00
2024-01-31T23:04:24.929Z,100.00
2024-01-31T23:06:53.612Z,100.00
2024-01-31T23:09:22.377Z,100.00
2024-01-31T23:11:51.107Z,100.00
2024-01-31T23:14:19.569Z,100.00
2024-01-31T23:16:48.133Z,100.00
2024-01-31T23:19:17.176Z,100.00
2024-01-31T23:21:45.859Z,100.00
2024-01-31T23:24:14.399Z,100.00
2024-01-31T23:26:43.471Z,100.00
2024-01-31T23:29:12.530Z,100.00
2024-01-31T23:31:41.011Z,100.00
2024-01-31T23:34:10.226Z,100.00
2024-01-31T23:36:38.904Z,100.00
2024-01-31T23:39:08.035Z,100.00
2024-01-31T23:41:36.828Z,100.00
2024-01-31T23:44:08.362Z,100.00
2024-01-31T23:46:36.816Z,100.00
2024-01-31T23:49:05.359Z,100.00
2024-01-31T23:51:34.034Z,100.00
2024-01-31T23:54:02.574Z,100.00
2024-01-31T23:56:31.405Z,100.00
2024-01-31T23:58:59.793Z,100.00
